createdAt,value
2023-01-03T00:00:13.881Z,99287.25
2023-01-03T00:03:18.207Z,99294.16
2023-01-03T00:06:21.735Z,99294.16
2023-01-03T00:09:24.112Z,99290.53
2023-01-03T00:12:30.855Z,99292.22
2023-01-03T00:15:36.503Z,99288.59
2023-01-03T00:18:38.060Z,99293.78
2023-01-03T00:21:39.715Z,99291.19
2023-01-03T00:24:41.253Z,99291.25
2023-01-03T00:27:42.784Z,99285.19
2023-01-03T00:30:44.310Z,99290.22
2023-01-03T00:33:45.823Z,99295.13
2023-01-03T00:36:47.450Z,99301.13
2023-01-03T00:39:48.996Z,99293.19
2023-01-03T00:43:09.161Z,99290.53
2023-01-03T00:46:11.629Z,99290.44
2023-01-03T00:49:13.095Z,99294.84
2023-01-03T00:52:14.624Z,99293.25
2023-01-03T00:55:16.225Z,99292.41
2023-01-03T00:58:17.728Z,99294.25
2023-01-03T01:01:22.007Z,99302.13
2023-01-03T01:04:24.531Z,99293.31
2023-01-03T01:07:26.048Z,99291.53
2023-01-03T01:10:27.649Z,99299.13
2023-01-03T01:13:32.602Z,99302.53
2023-01-03T01:16:34.351Z,99303.28
2023-01-03T01:19:37.939Z,99312.69
2023-01-03T01:22:39.463Z,99309.22
2023-01-03T01:25:40.973Z,99309.13
2023-01-03T01:28:42.590Z,99308.06
2023-01-03T01:31:44.761Z,99311.41
2023-01-03T01:34:46.398Z,99314.75
2023-01-03T01:37:47.955Z,99313.88
2023-01-03T01:40:49.488Z,99304.28
2023-01-03T01:44:14.835Z,99304.25
2023-01-03T01:47:27.804Z,99312.78
2023-01-03T01:50:58.680Z,99317.78
2023-01-03T01:54:01.169Z,99323.94
2023-01-03T01:57:02.697Z,99328.47
2023-01-03T02:00:06.283Z,99332.13
2023-01-03T02:03:08.017Z,99338.19
2023-01-03T02:06:10.635Z,99332.94
2023-01-03T02:09:12.041Z,99339.81
2023-01-03T02:12:56.115Z,99345.88
2023-01-03T02:15:57.571Z,99344.00
2023-01-03T02:19:10.942Z,99335.22
2023-01-03T02:22:31.271Z,99340.28
2023-01-03T02:25:57.678Z,99338.47
2023-01-03T02:29:17.859Z,99342.66
2023-01-03T02:32:51.653Z,99333.31
2023-01-03T02:35:55.241Z,99331.72
2023-01-03T02:39:13.539Z,99327.25
2023-01-03T02:42:58.641Z,99325.22
2023-01-03T02:46:27.436Z,99324.34
2023-01-03T02:49:58.477Z,99323.47
2023-01-03T02:53:02.291Z,99320.03
2023-01-03T02:56:09.619Z,99323.56
2023-01-03T02:59:14.626Z,99327.00
2023-01-03T03:02:16.261Z,99323.44
2023-01-03T03:05:24.922Z,99337.31
2023-01-03T03:08:26.442Z,99332.81
2023-01-03T03:11:47.626Z,99338.00
2023-01-03T03:14:50.373Z,99338.03
2023-01-03T03:17:53.912Z,99341.69
2023-01-03T03:21:14.022Z,99337.25
2023-01-03T03:24:38.501Z,99327.78
2023-01-03T03:28:01.621Z,99342.94
2023-01-03T03:31:14.408Z,99334.09
2023-01-03T03:34:27.893Z,99340.13
2023-01-03T03:37:29.508Z,99335.72
2023-01-03T03:40:51.343Z,99339.00
2023-01-03T03:44:28.793Z,99344.16
2023-01-03T03:47:36.162Z,99342.44
2023-01-03T03:50:51.240Z,99336.31
2023-01-03T03:53:52.781Z,99338.09
2023-01-03T03:57:06.010Z,99344.03
2023-01-03T04:00:19.577Z,99346.38
2023-01-03T04:03:21.223Z,99347.34
2023-01-03T04:06:28.475Z,99354.44
2023-01-03T04:09:30.196Z,99350.19
2023-01-03T04:12:31.727Z,99347.50
2023-01-03T04:15:33.273Z,99346.63
2023-01-03T04:18:34.862Z,99343.41
2023-01-03T04:21:36.782Z,99344.16
2023-01-03T04:24:38.369Z,99344.06
2023-01-03T04:27:39.884Z,99350.19
2023-01-03T04:30:41.417Z,99368.78
2023-01-03T04:33:43.011Z,99367.84
2023-01-03T04:36:44.568Z,99364.34
2023-01-03T04:39:46.103Z,99359.94
2023-01-03T04:43:06.218Z,99354.59
2023-01-03T04:46:07.885Z,99358.03
2023-01-03T04:49:09.724Z,99352.66
2023-01-03T04:52:11.288Z,99361.25
2023-01-03T04:55:13.214Z,99357.75
2023-01-03T04:58:14.757Z,99360.41
2023-01-03T05:01:16.405Z,99356.22
2023-01-03T05:04:18.024Z,99357.88
2023-01-03T05:07:19.578Z,99356.91
2023-01-03T05:10:21.137Z,99349.91
2023-01-03T05:13:22.778Z,99348.25
2023-01-03T05:16:24.465Z,99351.84
2023-01-03T05:19:26.885Z,99361.47
2023-01-03T05:22:46.903Z,99364.22
2023-01-03T05:25:51.329Z,99372.19
2023-01-03T05:28:53.416Z,99373.16
2023-01-03T05:31:55.059Z,99374.09
2023-01-03T05:34:56.663Z,99376.56
2023-01-03T05:37:58.167Z,99380.84
2023-01-03T05:40:59.710Z,99382.38
2023-01-03T05:44:01.230Z,99379.50
2023-01-03T05:47:03.867Z,99387.22
2023-01-03T05:50:05.486Z,99389.63
2023-01-03T05:53:06.985Z,99397.28
2023-01-03T05:56:08.554Z,99395.47
2023-01-03T05:59:10.195Z,99395.47
2023-01-03T06:02:11.829Z,99398.13
2023-01-03T06:05:13.467Z,99401.44
2023-01-03T06:08:15.013Z,99409.13
2023-01-03T06:11:17.218Z,99403.28
2023-01-03T06:14:20.076Z,99395.69
2023-01-03T06:17:40.142Z,99407.81
2023-01-03T06:20:41.689Z,99406.66
2023-01-03T06:23:43.224Z,99413.38
2023-01-03T06:26:44.820Z,99417.53
2023-01-03T06:29:46.393Z,99415.81
2023-01-03T06:32:48.002Z,99423.63
2023-01-03T06:35:49.529Z,99428.75
2023-01-03T06:38:51.104Z,99426.31
2023-01-03T06:41:52.627Z,99432.47
2023-01-03T06:45:12.503Z,99434.22
2023-01-03T06:48:32.616Z,99423.84
2023-01-03T06:51:52.648Z,99427.31
2023-01-03T06:54:54.266Z,99425.22
2023-01-03T06:57:55.978Z,99419.06
2023-01-03T07:00:57.789Z,99423.03
2023-01-03T07:03:59.637Z,99434.00
2023-01-03T07:07:01.362Z,99432.03
2023-01-03T07:10:02.993Z,99422.97
2023-01-03T07:13:23.127Z,99431.75
2023-01-03T07:16:26.246Z,99429.47
2023-01-03T07:19:27.924Z,99443.31
2023-01-03T07:22:29.471Z,99440.84
2023-01-03T07:25:31.017Z,99436.50
2023-01-03T07:28:33.004Z,99445.16
2023-01-03T07:31:34.910Z,99445.25
2023-01-03T07:34:36.565Z,99456.34
2023-01-03T07:37:38.096Z,99456.59
2023-01-03T07:40:39.750Z,99449.03
2023-01-03T07:43:44.265Z,99457.72
2023-01-03T07:46:45.910Z,99456.84
2023-01-03T07:49:47.575Z,99468.56
2023-01-03T07:52:49.100Z,99468.22
2023-01-03T07:55:50.656Z,99462.41
2023-01-03T07:58:52.196Z,99465.91
2023-01-03T08:01:53.867Z,99465.56
2023-01-03T08:04:55.643Z,99464.59
2023-01-03T08:07:57.177Z,99476.13
2023-01-03T08:11:17.274Z,99472.50
2023-01-03T08:14:23.642Z,99475.94
2023-01-03T08:17:27.562Z,99479.50
2023-01-03T08:20:29.160Z,99486.81
2023-01-03T08:23:30.874Z,99483.63
2023-01-03T08:26:32.503Z,99483.75
2023-01-03T08:29:34.052Z,99490.00
2023-01-03T08:32:35.616Z,99499.31
2023-01-03T08:35:38.220Z,99502.28
2023-01-03T08:38:41.307Z,99495.34
2023-01-03T08:41:44.110Z,99505.56
2023-01-03T08:44:45.650Z,99513.59
2023-01-03T08:47:47.215Z,99507.69
2023-01-03T08:50:48.854Z,99509.53
2023-01-03T08:53:50.502Z,99501.97
2023-01-03T08:56:52.013Z,99507.22
2023-01-03T08:59:53.572Z,99516.28
2023-01-03T09:02:59.739Z,99508.63
2023-01-03T09:06:02.438Z,99514.03
2023-01-03T09:09:05.277Z,99518.41
2023-01-03T09:12:06.840Z,99512.88
2023-01-03T09:15:08.875Z,99505.56
2023-01-03T09:18:10.442Z,99516.19
2023-01-03T09:21:12.038Z,99518.16
2023-01-03T09:24:13.648Z,99520.59
2023-01-03T09:27:15.162Z,99536.88
2023-01-03T09:30:16.838Z,99528.50
2023-01-03T09:33:18.392Z,99530.47
2023-01-03T09:36:19.953Z,99532.25
2023-01-03T09:39:21.630Z,99531.41
2023-01-03T09:42:43.238Z,99533.56
2023-01-03T09:45:50.444Z,99538.31
2023-01-03T09:48:52.420Z,99539.47
2023-01-03T09:52:12.592Z,99537.50
2023-01-03T09:55:45.412Z,99537.59
2023-01-03T09:59:10.618Z,99542.31
2023-01-03T10:02:49.138Z,99546.06
2023-01-03T10:06:06.199Z,99536.09
2023-01-03T10:09:40.129Z,99518.88
2023-01-03T10:13:20.493Z,99517.00
2023-01-03T10:16:48.137Z,99517.38
2023-01-03T10:20:08.741Z,99509.56
2023-01-03T10:23:10.338Z,99516.53
2023-01-03T10:26:11.981Z,99563.38
2023-01-03T10:29:13.521Z,99658.94
2023-01-03T10:32:29.033Z,99747.09
2023-01-03T10:35:34.610Z,99794.50
2023-01-03T10:38:42.778Z,99837.75
2023-01-03T10:41:48.820Z,99846.59
2023-01-03T10:44:59.700Z,99853.34
2023-01-03T10:48:01.531Z,99863.06
2023-01-03T10:51:21.611Z,99872.44
2023-01-03T10:54:29.523Z,99881.97
2023-01-03T10:57:39.187Z,99869.03
2023-01-03T11:00:40.881Z,99877.81
2023-01-03T11:03:51.082Z,99878.84
2023-01-03T11:07:16.988Z,99868.44
2023-01-03T11:10:18.962Z,99869.41
2023-01-03T11:13:22.657Z,99870.16
2023-01-03T11:16:24.294Z,99864.63
2023-01-03T11:19:27.588Z,99856.94
2023-01-03T11:22:37.565Z,99846.34
2023-01-03T11:25:45.326Z,99840.63
2023-01-03T11:28:53.862Z,99827.59
2023-01-03T11:32:07.459Z,99815.56
2023-01-03T11:35:23.319Z,99805.69
2023-01-03T11:38:51.007Z,99792.41
2023-01-03T11:42:06.811Z,99783.63
2023-01-03T11:45:33.628Z,99769.63
2023-01-03T11:48:53.486Z,99769.03
2023-01-03T11:52:10.101Z,99770.88
2023-01-03T11:55:20.737Z,99752.03
2023-01-03T11:58:37.373Z,99763.72
2023-01-03T12:02:03.818Z,99759.59
2023-01-03T12:05:23.344Z,99763.72
2023-01-03T12:08:48.477Z,99750.28
2023-01-03T12:12:11.057Z,99759.44
2023-01-03T12:15:22.705Z,99752.09
2023-01-03T12:18:49.055Z,99753.69
2023-01-03T12:22:02.949Z,99739.22
2023-01-03T12:25:16.458Z,99726.50
2023-01-03T12:28:28.074Z,99708.97
2023-01-03T12:31:33.171Z,99689.41
2023-01-03T12:34:43.074Z,99666.34
2023-01-03T12:37:45.067Z,99658.53
2023-01-03T12:40:58.937Z,99643.69
2023-01-03T12:44:08.129Z,99627.69
2023-01-03T12:47:31.906Z,99619.00
2023-01-03T12:50:39.588Z,99610.19
2023-01-03T12:53:47.371Z,99597.91
2023-01-03T12:57:47.536Z,99588.22
2023-01-03T13:00:59.851Z,99580.44
2023-01-03T13:04:11.807Z,99565.06
2023-01-03T13:07:25.239Z,99554.91
2023-01-03T13:10:28.438Z,99545.81
2023-01-03T13:13:30.448Z,99544.06
2023-01-03T13:16:48.849Z,99548.41
2023-01-03T13:20:09.860Z,99545.69
2023-01-03T13:23:34.322Z,99539.53
2023-01-03T13:26:35.902Z,99534.41
2023-01-03T13:29:41.831Z,99531.69
2023-01-03T13:32:51.381Z,99527.50
2023-01-03T13:35:57.626Z,99523.16
2023-01-03T13:38:59.167Z,99516.88
2023-01-03T13:42:01.119Z,99514.22
2023-01-03T13:45:23.894Z,99515.06
2023-01-03T13:48:31.942Z,99510.66
2023-01-03T13:51:34.524Z,99499.16
2023-01-03T13:54:54.800Z,99495.59
2023-01-03T13:57:56.320Z,99497.50
2023-01-03T14:01:06.243Z,99501.88
2023-01-03T14:04:26.514Z,99496.47
2023-01-03T14:07:49.566Z,99497.50
2023-01-03T14:11:33.680Z,99491.13
2023-01-03T14:14:37.559Z,99488.63
2023-01-03T14:17:39.122Z,99490.31
2023-01-03T14:20:43.719Z,99490.78
2023-01-03T14:24:01.861Z,99499.41
2023-01-03T14:27:17.003Z,99488.84
2023-01-03T14:30:24.151Z,99497.16
2023-01-03T14:33:31.438Z,99502.25
2023-01-03T14:36:32.986Z,99507.41
2023-01-03T14:42:34.888Z,99501.16
2023-01-03T14:45:36.409Z,99506.31
2023-01-03T14:48:38.026Z,99512.16
2023-01-03T14:51:39.544Z,99509.44
2023-01-03T14:54:44.256Z,99510.13
2023-01-03T14:57:46.663Z,99506.56
2023-01-03T15:00:48.234Z,99507.47
2023-01-03T15:03:50.025Z,99502.97
2023-01-03T15:07:09.494Z,99507.13
2023-01-03T15:10:18.406Z,99507.00
2023-01-03T15:13:23.378Z,99510.44
2023-01-03T15:16:28.763Z,99506.84
2023-01-03T15:19:30.611Z,99500.56
2023-01-03T15:22:50.538Z,99511.66
2023-01-03T15:25:53.163Z,99524.50
2023-01-03T15:28:56.316Z,99523.41
2023-01-03T15:31:58.600Z,99527.56
2023-01-03T15:35:00.273Z,99522.13
2023-01-03T15:38:01.997Z,99529.41
2023-01-03T15:41:40.247Z,99530.75
2023-01-03T15:44:41.887Z,99525.94
2023-01-03T15:47:43.478Z,99529.88
2023-01-03T15:50:48.232Z,99525.25
2023-01-03T15:53:49.863Z,99524.22
2023-01-03T15:56:55.223Z,99525.78
2023-01-03T15:59:58.862Z,99536.06
2023-01-03T16:03:01.799Z,99532.28
2023-01-03T16:06:03.605Z,99532.88
2023-01-03T16:09:05.103Z,99524.25
2023-01-03T16:12:07.254Z,99525.44
2023-01-03T16:15:11.577Z,99538.09
2023-01-03T16:18:14.376Z,99532.44
2023-01-03T16:21:15.908Z,99539.28
2023-01-03T16:24:18.137Z,99530.31
2023-01-03T16:27:21.884Z,99531.00
2023-01-03T16:30:24.599Z,99527.28
2023-01-03T16:33:28.655Z,99528.84
2023-01-03T16:36:37.373Z,99527.75
2023-01-03T16:39:45.691Z,99539.59
2023-01-03T16:42:49.608Z,99536.81
2023-01-03T16:45:51.811Z,99535.81
2023-01-03T16:48:54.170Z,99541.72
2023-01-03T16:51:57.959Z,99542.47
2023-01-03T16:55:10.056Z,99547.44
2023-01-03T16:58:12.828Z,99547.44
2023-01-03T17:01:14.719Z,99553.75
2023-01-03T17:04:17.382Z,99558.81
2023-01-03T17:07:19.546Z,99561.97
2023-01-03T17:10:23.673Z,99572.19
2023-01-03T17:13:32.931Z,99572.78
2023-01-03T17:16:35.676Z,99563.34
2023-01-03T17:20:06.964Z,99570.53
2023-01-03T17:23:00.122Z,99577.25
2023-01-03T17:26:02.012Z,99559.81
2023-01-03T17:29:04.998Z,99567.19
2023-01-03T17:32:17.460Z,99558.31
2023-01-03T17:35:19.386Z,99561.66
2023-01-03T17:38:26.220Z,99571.78
2023-01-03T17:41:28.857Z,99562.09
2023-01-03T17:44:30.636Z,99562.59
2023-01-03T17:47:52.061Z,99569.13
2023-01-03T17:50:53.737Z,99566.41
2023-01-03T17:53:55.943Z,99557.66
2023-01-03T17:56:58.451Z,99562.13
2023-01-03T18:00:00.228Z,99558.69
2023-01-03T18:03:02.272Z,99562.09
2023-01-03T18:06:06.918Z,99556.72
2023-01-03T18:09:12.280Z,99557.66
2023-01-03T18:12:18.316Z,99555.16
2023-01-03T18:15:21.328Z,99556.78
2023-01-03T18:18:23.965Z,99567.06
2023-01-03T18:21:28.151Z,99566.84
2023-01-03T18:24:31.233Z,99573.38
2023-01-03T18:27:32.858Z,99579.91
2023-01-03T18:30:34.705Z,99577.13
2023-01-03T18:33:36.594Z,99577.81
2023-01-03T18:36:43.190Z,99585.34
2023-01-03T18:39:44.927Z,99585.06
2023-01-03T18:43:05.677Z,99583.97
2023-01-03T18:46:15.026Z,99586.50
2023-01-03T18:49:16.876Z,99587.31
2023-01-03T18:52:36.852Z,99582.84
2023-01-03T18:55:38.495Z,99584.19
2023-01-03T18:58:40.144Z,99585.88
2023-01-03T19:01:41.774Z,99578.81
2023-01-03T19:04:49.217Z,99580.38
2023-01-03T19:07:53.027Z,99584.66
2023-01-03T19:10:54.643Z,99597.38
2023-01-03T19:13:59.951Z,99589.59
2023-01-03T19:17:01.536Z,99588.94
2023-01-03T19:20:03.212Z,99590.69
2023-01-03T19:23:04.758Z,99588.16
2023-01-03T19:26:06.445Z,99584.78
2023-01-03T19:29:10.671Z,99583.16
2023-01-03T19:32:19.603Z,99588.47
2023-01-03T19:35:22.026Z,99585.75
2023-01-03T19:38:23.695Z,99584.88
2023-01-03T19:41:25.240Z,99587.66
2023-01-03T19:44:26.822Z,99594.50
2023-01-03T19:47:28.489Z,99591.09
2023-01-03T19:50:34.302Z,99589.25
2023-01-03T19:53:35.893Z,99593.72
2023-01-03T19:56:37.419Z,99594.69
2023-01-03T19:59:39.038Z,99593.00
2023-01-03T20:02:41.074Z,99586.34
2023-01-03T20:05:42.866Z,99590.78
2023-01-03T20:08:44.430Z,99593.19
2023-01-03T20:11:50.563Z,99589.75
2023-01-03T20:14:52.726Z,99590.63
2023-01-03T20:17:54.468Z,99584.75
2023-01-03T20:20:58.996Z,99581.19
2023-01-03T20:24:01.735Z,99565.72
2023-01-03T20:27:03.195Z,99572.44
2023-01-03T20:30:13.573Z,99575.78
2023-01-03T20:33:15.125Z,99575.09
2023-01-03T20:36:41.744Z,99575.16
2023-01-03T20:39:43.425Z,99573.25
2023-01-03T20:42:45.214Z,99570.00
2023-01-03T20:45:47.585Z,99567.63
2023-01-03T20:49:00.157Z,99573.66
2023-01-03T20:52:01.707Z,99558.06
2023-01-03T20:55:03.297Z,99556.28
2023-01-03T20:58:04.847Z,99563.34
2023-01-03T21:01:09.558Z,99563.44
2023-01-03T21:04:12.460Z,99564.44
2023-01-03T21:07:48.150Z,99562.69
2023-01-03T21:10:52.940Z,99562.88
2023-01-03T21:13:55.414Z,99551.91
2023-01-03T21:16:57.098Z,99545.25
2023-01-03T21:19:58.682Z,99554.06
2023-01-03T21:23:00.243Z,99549.25
2023-01-03T21:26:01.894Z,99547.97
2023-01-03T21:29:03.531Z,99541.81
2023-01-03T21:32:05.622Z,99535.09
2023-01-03T21:35:09.577Z,99534.84
2023-01-03T21:38:11.167Z,99526.72
2023-01-03T21:41:20.363Z,99527.00
2023-01-03T21:44:21.932Z,99527.84
2023-01-03T21:47:23.534Z,99523.41
2023-01-03T21:50:25.385Z,99522.44
2023-01-03T21:53:27.005Z,99522.41
2023-01-03T21:56:28.529Z,99523.13
2023-01-03T21:59:30.320Z,99529.09
2023-01-03T22:02:53.405Z,99524.72
2023-01-03T22:06:10.785Z,99523.06
2023-01-03T22:09:32.281Z,99527.28
2023-01-03T22:12:33.827Z,99527.88
2023-01-03T22:15:36.425Z,99532.41
2023-01-03T22:18:37.940Z,99536.84
2023-01-03T22:21:39.447Z,99531.81
2023-01-03T22:24:40.965Z,99529.53
2023-01-03T22:27:43.185Z,99531.34
2023-01-03T22:30:44.734Z,99533.78
2023-01-03T22:33:46.944Z,99534.81
2023-01-03T22:36:48.470Z,99536.94
2023-01-03T22:39:49.971Z,99541.53
2023-01-03T22:42:51.488Z,99522.31
2023-01-03T22:45:53.042Z,99510.19
2023-01-03T22:48:54.925Z,99524.47
2023-01-03T22:51:56.490Z,99528.91
2023-01-03T22:54:58.368Z,99526.19
2023-01-03T22:57:59.968Z,99520.34
2023-01-03T23:01:08.552Z,99522.16
2023-01-03T23:04:10.332Z,99529.16
2023-01-03T23:07:11.992Z,99523.13
2023-01-03T23:10:13.580Z,99515.34
2023-01-03T23:13:15.119Z,99511.19
2023-01-03T23:16:16.687Z,99521.38
2023-01-03T23:19:19.979Z,99513.25
2023-01-03T23:22:21.509Z,99513.38
2023-01-03T23:25:23.173Z,99515.53
2023-01-03T23:28:24.686Z,99509.50
2023-01-03T23:31:27.460Z,99508.63
2023-01-03T23:34:29.899Z,99504.97
2023-01-03T23:37:31.748Z,99509.16
2023-01-03T23:40:33.276Z,99501.69
2023-01-03T23:43:34.793Z,99504.09
2023-01-03T23:46:36.349Z,99491.03
2023-01-03T23:49:37.856Z,99495.38
2023-01-03T23:52:39.370Z,99493.16
2023-01-03T23:55:40.883Z,99482.72
2023-01-03T23:58:42.459Z,99481.19
